Time;durP1;ratioP1;P1;durP2;ratioP2;P2;SDS_P1;SDS_P2;PMS_P1;PMS_P2;Temp;Humidity;BMP_temperature;BMP_pressure;BME280_temperature;BME280_humidity;BME280_pressure;Samples;Min_cycle;Max_cycle;Signal;HPM_P1;HPM_P2
2023/12/31 00:00:31;;;;;;;0.65;0.30;;;10.00;99.90;;;;;;5054970;28;20036;-81
2023/12/31 00:02:56;;;;;;;3.72;0.70;;;10.00;99.90;;;;;;5054954;28;20029;-81
2023/12/31 00:05:22;;;;;;;1.70;0.50;;;10.00;99.90;;;;;;5056696;28;20029;-81
2023/12/31 00:07:47;;;;;;;1.08;0.30;;;10.00;99.90;;;;;;5056545;28;20085;-81
2023/12/31 00:10:13;;;;;;;2.40;0.28;;;10.00;99.90;;;;;;5056776;28;20073;-81
2023/12/31 00:12:39;;;;;;;2.03;0.35;;;10.00;99.90;;;;;;5054954;28;20041;-81
2023/12/31 00:15:05;;;;;;;1.25;0.30;;;10.00;99.90;;;;;;5054763;28;20042;-81
2023/12/31 00:17:30;;;;;;;2.55;0.30;;;10.00;99.90;;;;;;5056176;28;20073;-81
2023/12/31 00:19:56;;;;;;;1.13;0.20;;;10.00;99.90;;;;;;5051755;28;20040;-81
2023/12/31 00:22:22;;;;;;;1.35;0.20;;;10.00;99.90;;;;;;5049876;28;20041;-81
2023/12/31 00:24:51;;;;;;;0.45;0.20;;;10.00;99.90;;;;;;5050844;28;20030;-81
2023/12/31 00:27:17;;;;;;;0.60;0.10;;;10.00;99.90;;;;;;5051080;28;20098;-80
2023/12/31 00:29:44;;;;;;;2.13;0.20;;;10.00;99.90;;;;;;5047141;28;20044;-80
2023/12/31 00:32:10;;;;;;;1.23;0.20;;;10.00;99.90;;;;;;5046030;28;20021;-81
2023/12/31 00:34:36;;;;;;;1.25;0.10;;;10.00;99.90;;;;;;5049013;28;20037;-81
2023/12/31 00:37:03;;;;;;;2.90;0.20;;;10.00;99.90;;;;;;5054479;28;20030;-80
2023/12/31 00:39:29;;;;;;;0.95;0.20;;;10.10;99.90;;;;;;5052870;28;20063;-81
2023/12/31 00:41:54;;;;;;;4.30;0.30;;;10.10;99.90;;;;;;5049744;28;20487;-80
2023/12/31 00:44:20;;;;;;;1.30;0.22;;;10.10;99.90;;;;;;5051550;28;20048;-81
2023/12/31 00:46:45;;;;;;;1.77;0.10;;;10.10;99.90;;;;;;5043550;28;20059;-81
2023/12/31 00:49:11;;;;;;;1.30;0.20;;;10.10;99.90;;;;;;5054634;28;20089;-80
2023/12/31 00:51:37;;;;;;;1.73;0.30;;;10.20;99.90;;;;;;5055244;28;20029;-81
2023/12/31 00:54:03;;;;;;;2.40;0.30;;;10.10;99.90;;;;;;5053750;28;20443;-81
2023/12/31 00:56:28;;;;;;;3.33;0.20;;;10.10;99.90;;;;;;5057676;28;20029;-81
2023/12/31 00:58:54;;;;;;;2.65;0.20;;;10.10;99.90;;;;;;5060145;28;20490;-82
2023/12/31 01:01:20;;;;;;;1.27;0.20;;;10.20;99.90;;;;;;5043235;28;20028;-81
2023/12/31 01:03:45;;;;;;;1.00;0.20;;;10.20;99.90;;;;;;5060480;28;20025;-81
2023/12/31 01:06:11;;;;;;;1.25;0.20;;;10.20;99.90;;;;;;5059172;28;20486;-81
2023/12/31 01:08:37;;;;;;;2.05;0.15;;;10.20;99.90;;;;;;5055184;28;20014;-80
2023/12/31 01:11:03;;;;;;;1.85;0.15;;;10.20;99.90;;;;;;5050561;28;20026;-81
2023/12/31 01:13:29;;;;;;;1.55;0.20;;;10.20;99.90;;;;;;5052123;28;20053;-80
2023/12/31 01:15:54;;;;;;;1.80;0.10;;;10.20;99.90;;;;;;5053232;28;20021;-81
2023/12/31 01:18:20;;;;;;;0.90;0.43;;;10.20;99.90;;;;;;5059354;28;20063;-83
2023/12/31 01:20:46;;;;;;;1.85;0.20;;;10.20;99.90;;;;;;5039646;28;20034;-82
2023/12/31 01:23:11;;;;;;;1.70;0.20;;;10.20;99.90;;;;;;5057231;28;20073;-81
2023/12/31 01:25:37;;;;;;;0.77;0.22;;;10.20;99.90;;;;;;5059954;28;20026;-82
2023/12/31 01:28:03;;;;;;;1.08;0.10;;;10.30;99.90;;;;;;5058792;28;20013;-80
2023/12/31 01:30:29;;;;;;;0.90;0.20;;;10.30;99.90;;;;;;5059983;28;20044;-81
2023/12/31 01:32:54;;;;;;;1.30;0.20;;;10.30;99.90;;;;;;5056250;28;20093;-81
2023/12/31 01:35:20;;;;;;;1.48;0.20;;;10.30;99.90;;;;;;5056800;28;20025;-81
2023/12/31 01:37:46;;;;;;;0.82;0.20;;;10.30;99.90;;;;;;5056891;28;20460;-81
2023/12/31 01:40:14;;;;;;;2.78;0.20;;;10.30;99.90;;;;;;5052957;28;20059;-81
2023/12/31 01:42:40;;;;;;;2.45;0.10;;;10.30;99.90;;;;;;5039266;28;20028;-81
2023/12/31 01:45:07;;;;;;;1.38;0.30;;;10.30;99.90;;;;;;5056991;28;20026;-81
2023/12/31 01:47:36;;;;;;;1.33;0.20;;;10.30;99.90;;;;;;5059230;28;20063;-81
2023/12/31 01:50:03;;;;;;;2.38;0.30;;;10.30;99.90;;;;;;5053147;28;20021;-81
2023/12/31 01:52:34;;;;;;;1.30;0.40;;;10.20;99.90;;;;;;5053683;28;20034;-81
2023/12/31 01:55:04;;;;;;;2.58;0.40;;;10.20;99.90;;;;;;5040074;28;20036;-81
2023/12/31 01:57:33;;;;;;;3.55;0.30;;;10.20;99.90;;;;;;5055214;28;20037;-81
2023/12/31 02:00:00;;;;;;;1.80;0.30;;;10.20;99.90;;;;;;5058846;28;20029;-80
2023/12/31 02:02:26;;;;;;;3.10;1.38;;;10.10;99.90;;;;;;5057497;28;20506;-80
2023/12/31 02:04:52;;;;;;;10.68;3.83;;;10.10;99.90;;;;;;5052612;28;20025;-79
2023/12/31 02:07:18;;;;;;;26.60;9.98;;;10.10;99.90;;;;;;5048205;28;20128;-80
2023/12/31 02:09:44;;;;;;;51.58;20.27;;;10.10;99.90;;;;;;5052166;28;20025;-80
2023/12/31 02:12:10;;;;;;;57.15;22.95;;;10.10;99.90;;;;;;5041065;28;20416;-80
2023/12/31 02:14:36;;;;;;;47.97;20.38;;;10.10;99.90;;;;;;5046004;28;20389;-80
2023/12/31 02:17:02;;;;;;;28.02;11.48;;;10.00;99.90;;;;;;5045901;28;20081;-81
2023/12/31 02:19:28;;;;;;;39.60;15.15;;;10.00;99.90;;;;;;5052728;28;20494;-81
2023/12/31 02:21:54;;;;;;;53.03;19.67;;;10.00;99.90;;;;;;5044839;28;20121;-81
2023/12/31 02:24:25;;;;;;;47.08;18.52;;;10.00;99.90;;;;;;5042333;28;20065;-81
2023/12/31 02:26:51;;;;;;;63.20;24.63;;;10.00;99.90;;;;;;5049610;28;20510;-80
2023/12/31 02:29:17;;;;;;;59.13;22.23;;;10.00;99.90;;;;;;5056269;28;20021;-80
2023/12/31 02:31:42;;;;;;;48.72;19.23;;;9.90;99.90;;;;;;5058213;28;20030;-80
2023/12/31 02:34:08;;;;;;;53.63;19.73;;;9.90;99.90;;;;;;5057592;28;20034;-80
2023/12/31 02:36:34;;;;;;;31.98;14.93;;;9.90;99.90;;;;;;5040002;28;20044;-80
2023/12/31 02:38:59;;;;;;;36.85;13.27;;;9.90;99.90;;;;;;5056885;28;20097;-79
2023/12/31 02:41:25;;;;;;;49.22;19.65;;;9.90;99.90;;;;;;5055241;28;20017;-79
2023/12/31 02:43:51;;;;;;;63.30;25.25;;;9.90;99.90;;;;;;5056714;28;20057;-79
2023/12/31 02:46:17;;;;;;;58.22;24.33;;;9.90;99.90;;;;;;5055454;28;20009;-80
2023/12/31 02:48:43;;;;;;;59.28;21.63;;;10.00;99.90;;;;;;5055633;28;20022;-80
2023/12/31 02:51:08;;;;;;;37.53;15.65;;;10.00;99.90;;;;;;5054036;28;20084;-80
2023/12/31 02:53:34;;;;;;;30.15;11.52;;;10.00;99.90;;;;;;5056415;28;20349;-80
2023/12/31 02:56:00;;;;;;;20.02;7.82;;;10.00;99.90;;;;;;5055075;28;20021;-80
2023/12/31 02:58:26;;;;;;;17.25;5.50;;;9.90;99.90;;;;;;5055911;28;20044;-80
2023/12/31 03:00:51;;;;;;;12.07;3.83;;;10.00;99.90;;;;;;5054731;28;20085;-79
2023/12/31 03:03:17;;;;;;;9.27;3.40;;;9.90;99.90;;;;;;5054429;28;20033;-80
2023/12/31 03:05:42;;;;;;;5.93;2.58;;;9.90;99.90;;;;;;5054541;28;20073;-80
2023/12/31 03:08:08;;;;;;;5.47;1.88;;;9.90;99.90;;;;;;5055839;28;20029;-80
2023/12/31 03:10:34;;;;;;;8.77;3.55;;;9.90;99.90;;;;;;5055065;28;20018;-80
2023/12/31 03:12:59;;;;;;;8.23;3.08;;;9.90;99.90;;;;;;5054483;28;20042;-80
2023/12/31 03:15:25;;;;;;;13.23;4.75;;;9.90;99.90;;;;;;5051664;28;20456;-80
2023/12/31 03:17:51;;;;;;;6.82;2.50;;;9.90;99.90;;;;;;5051714;28;20038;-81
2023/12/31 03:20:16;;;;;;;7.57;2.35;;;9.90;99.90;;;;;;5054505;28;20026;-80
2023/12/31 03:22:44;;;;;;;3.65;1.35;;;9.90;99.90;;;;;;5051851;28;20438;-80
2023/12/31 03:25:10;;;;;;;3.47;1.35;;;9.90;99.90;;;;;;5053665;28;20043;-80
2023/12/31 03:27:35;;;;;;;3.05;1.05;;;9.90;99.90;;;;;;5035813;28;20029;-80
2023/12/31 03:30:01;;;;;;;5.40;1.10;;;9.90;99.90;;;;;;5054306;28;20030;-80
2023/12/31 03:32:27;;;;;;;7.00;1.90;;;9.90;99.90;;;;;;5052559;28;20037;-80
2023/12/31 03:34:52;;;;;;;8.00;2.30;;;9.90;99.90;;;;;;5053697;28;20085;-80
2023/12/31 03:37:18;;;;;;;5.88;2.20;;;9.90;99.90;;;;;;5055283;28;20036;-79
2023/12/31 03:39:44;;;;;;;9.50;3.40;;;9.90;99.90;;;;;;5055141;28;20022;-80
2023/12/31 03:42:09;;;;;;;11.13;4.07;;;9.80;99.90;;;;;;5053012;28;20029;-79
2023/12/31 03:44:35;;;;;;;10.88;3.78;;;9.80;99.90;;;;;;5054447;28;20391;-80
2023/12/31 03:47:01;;;;;;;9.52;3.58;;;9.80;99.90;;;;;;5055430;28;20048;-80
2023/12/31 03:49:26;;;;;;;5.07;1.30;;;9.90;99.90;;;;;;5056752;28;20017;-80
2023/12/31 03:51:52;;;;;;;4.47;0.93;;;9.90;99.90;;;;;;5056230;28;20090;-80
2023/12/31 03:54:18;;;;;;;3.10;0.50;;;9.80;99.90;;;;;;5056115;28;20045;-80
2023/12/31 03:56:43;;;;;;;1.27;0.40;;;9.90;99.90;;;;;;5057022;28;20017;-80
2023/12/31 03:59:09;;;;;;;2.95;0.40;;;9.90;99.90;;;;;;5057118;28;20030;-80
2023/12/31 04:01:43;;;;;;;3.30;0.45;;;9.90;99.90;;;;;;5055865;28;20048;-80
2023/12/31 04:04:09;;;;;;;2.15;0.30;;;9.90;99.90;;;;;;5057385;28;20041;-80
2023/12/31 04:06:34;;;;;;;1.20;0.35;;;9.90;99.90;;;;;;5039345;28;20084;-80
2023/12/31 04:09:00;;;;;;;1.27;0.38;;;9.90;99.90;;;;;;5056568;28;20033;-80
2023/12/31 04:11:25;;;;;;;1.65;0.25;;;9.80;99.90;;;;;;5056441;28;20068;-80
2023/12/31 04:13:51;;;;;;;1.13;0.32;;;9.80;99.90;;;;;;5194539;22;20065;-79
2023/12/31 04:16:17;;;;;;;3.55;0.57;;;9.90;99.90;;;;;;5036812;28;20082;-80
2023/12/31 04:18:42;;;;;;;0.60;0.20;;;9.90;99.90;;;;;;5067894;22;20164;-78
2023/12/31 04:21:08;;;;;;;1.92;0.32;;;9.80;99.90;;;;;;5004413;28;20042;-80
2023/12/31 04:23:34;;;;;;;3.13;0.30;;;9.90;99.90;;;;;;5002714;28;20034;-80
2023/12/31 04:25:59;;;;;;;1.50;0.30;;;9.80;99.90;;;;;;5001616;28;20054;-80
2023/12/31 04:28:25;;;;;;;0.88;0.32;;;9.80;99.90;;;;;;4997081;28;20026;-80
2023/12/31 04:30:51;;;;;;;0.82;0.38;;;9.80;99.90;;;;;;5004049;28;20046;-80
2023/12/31 04:33:17;;;;;;;1.58;0.38;;;9.80;99.90;;;;;;5000450;28;20487;-80
2023/12/31 04:35:42;;;;;;;4.53;0.40;;;9.80;99.90;;;;;;4984694;28;20031;-80
2023/12/31 04:38:08;;;;;;;1.67;0.40;;;9.70;99.90;;;;;;5004191;28;20049;-80
2023/12/31 04:40:33;;;;;;;1.85;0.30;;;9.70;99.90;;;;;;5019037;28;20030;-80
2023/12/31 04:42:59;;;;;;;3.30;0.70;;;9.70;99.90;;;;;;5016920;28;20114;-80
2023/12/31 04:45:24;;;;;;;1.10;0.38;;;9.70;99.90;;;;;;5018601;28;20050;-81
2023/12/31 04:47:50;;;;;;;1.50;0.40;;;9.70;99.90;;;;;;5016939;28;20028;-80
2023/12/31 04:50:16;;;;;;;2.92;0.68;;;9.70;99.90;;;;;;5019366;28;20042;-80
2023/12/31 04:52:41;;;;;;;3.00;0.40;;;9.70;99.90;;;;;;5015618;28;20058;-80
2023/12/31 04:55:07;;;;;;;1.40;0.45;;;9.70;99.90;;;;;;5011439;28;20065;-78
2023/12/31 04:57:33;;;;;;;1.65;0.50;;;9.80;99.90;;;;;;4975491;28;20093;-77
2023/12/31 04:59:58;;;;;;;3.90;0.40;;;9.80;99.90;;;;;;4959806;28;20051;-77
2023/12/31 05:02:25;;;;;;;1.02;0.43;;;9.80;99.90;;;;;;4977079;28;20037;-77
2023/12/31 05:04:50;;;;;;;2.42;0.40;;;9.80;99.90;;;;;;4976697;28;20022;-77
2023/12/31 05:07:16;;;;;;;2.10;0.40;;;9.80;99.90;;;;;;4976775;28;20528;-77
2023/12/31 05:09:42;;;;;;;1.10;0.40;;;9.80;99.90;;;;;;4980889;28;20057;-78
2023/12/31 05:12:07;;;;;;;1.23;0.45;;;9.80;99.90;;;;;;4996311;28;20400;-77
2023/12/31 05:14:33;;;;;;;2.53;0.55;;;9.80;99.90;;;;;;4978306;28;20077;-77
2023/12/31 05:16:58;;;;;;;2.53;0.63;;;9.80;99.90;;;;;;4994054;28;20034;-75
2023/12/31 05:19:24;;;;;;;2.35;0.60;;;9.80;99.90;;;;;;4977951;28;20058;-76
2023/12/31 05:21:50;;;;;;;2.40;0.88;;;9.80;99.90;;;;;;4977665;28;20034;-76
2023/12/31 05:24:15;;;;;;;2.80;0.63;;;9.80;99.90;;;;;;4969571;28;20045;-75
2023/12/31 05:26:41;;;;;;;1.63;0.52;;;9.80;99.90;;;;;;4995260;28;20105;-76
2023/12/31 05:29:07;;;;;;;2.75;0.90;;;9.80;99.90;;;;;;4995082;28;20461;-77
2023/12/31 05:31:32;;;;;;;2.35;0.70;;;9.80;99.90;;;;;;4995335;28;20554;-77
2023/12/31 05:33:58;;;;;;;3.28;0.75;;;9.70;99.90;;;;;;4994700;28;20046;-76
2023/12/31 05:36:23;;;;;;;1.58;0.65;;;9.80;99.90;;;;;;4977471;28;20061;-76
2023/12/31 05:38:49;;;;;;;3.08;0.90;;;9.70;99.90;;;;;;4960965;28;20034;-76
2023/12/31 05:41:15;;;;;;;1.98;0.70;;;9.80;99.90;;;;;;4967273;28;20027;-75
2023/12/31 05:43:40;;;;;;;1.75;0.80;;;9.70;99.90;;;;;;4986616;28;20109;-81
2023/12/31 05:46:06;;;;;;;3.20;0.65;;;9.80;99.90;;;;;;4996055;28;20031;-82
2023/12/31 05:48:32;;;;;;;2.55;0.90;;;9.80;99.90;;;;;;4969889;28;20037;-82
2023/12/31 05:50:58;;;;;;;3.08;1.15;;;9.80;99.90;;;;;;4962295;28;20030;-82
2023/12/31 05:53:24;;;;;;;2.30;1.10;;;9.80;99.90;;;;;;4996561;28;20049;-82
2023/12/31 05:55:50;;;;;;;3.40;1.23;;;9.80;99.90;;;;;;4995933;28;20030;-81
2023/12/31 05:58:16;;;;;;;2.70;0.98;;;9.80;99.90;;;;;;4994459;28;20034;-76
2023/12/31 06:00:42;;;;;;;2.50;1.00;;;9.80;99.90;;;;;;4995534;28;20061;-78
2023/12/31 06:03:07;;;;;;;2.60;1.40;;;9.80;99.90;;;;;;4977854;28;20053;-77
2023/12/31 06:05:33;;;;;;;3.10;1.40;;;9.80;99.90;;;;;;4994208;28;20066;-75
2023/12/31 06:07:59;;;;;;;5.18;1.55;;;9.80;99.90;;;;;;4995048;28;20109;-74
2023/12/31 06:10:25;;;;;;;3.30;1.50;;;9.80;99.90;;;;;;4995582;28;20121;-75
2023/12/31 06:12:51;;;;;;;3.88;1.70;;;9.80;99.90;;;;;;4994949;28;20529;-75
2023/12/31 06:15:16;;;;;;;3.17;1.15;;;9.80;99.90;;;;;;4994821;28;20072;-75
2023/12/31 06:17:42;;;;;;;2.80;1.35;;;9.90;99.90;;;;;;4993877;28;20089;-75
2023/12/31 06:20:09;;;;;;;3.22;1.50;;;9.90;99.90;;;;;;4993516;28;20181;-75
2023/12/31 06:22:35;;;;;;;3.35;1.23;;;9.90;99.90;;;;;;4994928;28;20042;-76
2023/12/31 06:25:01;;;;;;;3.35;1.50;;;9.90;99.90;;;;;;4995021;28;20057;-76
2023/12/31 06:27:26;;;;;;;1.75;1.38;;;9.90;99.90;;;;;;4994934;28;20023;-74
2023/12/31 06:29:52;;;;;;;2.95;1.60;;;9.90;99.90;;;;;;4977407;28;20045;-76
2023/12/31 06:32:19;;;;;;;3.10;1.60;;;9.90;99.90;;;;;;4993598;28;20030;-77
2023/12/31 06:34:44;;;;;;;2.83;2.05;;;9.90;99.90;;;;;;4994449;28;20109;-77
2023/12/31 06:37:10;;;;;;;3.30;1.80;;;9.90;99.90;;;;;;4994764;28;20033;-77
2023/12/31 06:39:36;;;;;;;2.95;1.60;;;9.90;99.90;;;;;;4993883;28;20457;-77
2023/12/31 06:42:02;;;;;;;4.68;1.48;;;9.90;99.90;;;;;;4994281;28;20113;-77
2023/12/31 06:44:29;;;;;;;2.20;1.67;;;9.80;99.90;;;;;;4994338;28;20034;-77
2023/12/31 06:46:55;;;;;;;2.92;1.52;;;9.80;99.90;;;;;;4994184;28;20084;-76
2023/12/31 06:49:22;;;;;;;4.05;1.80;;;9.90;99.90;;;;;;4994022;28;20030;-76
2023/12/31 06:51:47;;;;;;;3.85;1.70;;;9.80;99.90;;;;;;4994385;28;20045;-76
2023/12/31 06:54:13;;;;;;;2.33;1.48;;;9.90;99.90;;;;;;4992927;28;20035;-75
2023/12/31 06:56:39;;;;;;;1.75;1.40;;;9.80;99.90;;;;;;4994299;28;20057;-76
2023/12/31 06:59:04;;;;;;;3.65;1.83;;;9.90;99.90;;;;;;4994227;28;20034;-76
2023/12/31 07:01:30;;;;;;;3.22;1.80;;;9.80;99.90;;;;;;4994222;28;20045;-76
2023/12/31 07:03:56;;;;;;;2.67;1.70;;;9.90;99.90;;;;;;4976571;28;20091;-76
2023/12/31 07:06:22;;;;;;;3.30;1.80;;;9.90;99.90;;;;;;4994136;28;20511;-75
2023/12/31 07:08:47;;;;;;;3.20;1.65;;;9.90;99.90;;;;;;4992869;28;20057;-77
2023/12/31 07:11:15;;;;;;;3.58;1.73;;;9.80;99.90;;;;;;4976537;28;20023;-73
2023/12/31 07:13:40;;;;;;;2.08;1.30;;;9.80;99.90;;;;;;5003779;28;20038;-83
2023/12/31 07:16:06;;;;;;;2.72;1.52;;;9.90;99.90;;;;;;4994337;28;20030;-79
2023/12/31 07:18:32;;;;;;;3.17;1.90;;;9.90;99.90;;;;;;4993714;28;20345;-79
2023/12/31 07:20:58;;;;;;;5.93;2.40;;;9.90;99.90;;;;;;4993446;28;20035;-79
2023/12/31 07:23:30;;;;;;;4.18;1.80;;;9.90;99.90;;;;;;4993877;28;20044;-79
2023/12/31 07:25:55;;;;;;;3.25;1.88;;;9.90;99.90;;;;;;4993518;28;20037;-79
2023/12/31 07:28:21;;;;;;;2.45;1.88;;;9.90;99.90;;;;;;4993498;28;20034;-78
2023/12/31 07:30:47;;;;;;;2.67;2.10;;;9.90;99.90;;;;;;4976226;28;20027;-78
2023/12/31 07:33:13;;;;;;;2.97;1.70;;;9.90;99.90;;;;;;4993605;28;20465;-78
2023/12/31 07:35:38;;;;;;;4.35;2.30;;;9.90;99.90;;;;;;4993352;28;20053;-78
2023/12/31 07:38:07;;;;;;;2.95;1.80;;;9.90;99.90;;;;;;4975986;28;20113;-78
2023/12/31 07:40:33;;;;;;;3.95;1.92;;;9.90;99.90;;;;;;4976180;28;20388;-78
2023/12/31 07:42:58;;;;;;;2.20;1.60;;;9.90;99.90;;;;;;4993630;28;20126;-78
2023/12/31 07:45:25;;;;;;;2.60;1.38;;;9.90;99.90;;;;;;4993104;28;20038;-78
2023/12/31 07:47:52;;;;;;;4.43;2.00;;;9.90;99.90;;;;;;4993503;28;20026;-78
2023/12/31 07:50:18;;;;;;;2.58;1.85;;;9.90;99.90;;;;;;4993489;28;20410;-78
2023/12/31 07:52:44;;;;;;;2.47;1.55;;;9.90;99.90;;;;;;4992740;28;20495;-78
2023/12/31 07:55:10;;;;;;;3.78;1.70;;;9.90;99.90;;;;;;4993361;28;20053;-78
2023/12/31 07:57:36;;;;;;;3.58;2.10;;;9.90;99.90;;;;;;4993371;28;20034;-78
2023/12/31 08:00:06;;;;;;;2.35;1.63;;;9.90;99.90;;;;;;4992166;28;20034;-78
2023/12/31 08:02:31;;;;;;;3.28;1.58;;;10.00;99.90;;;;;;4992408;28;20484;-78
2023/12/31 08:04:57;;;;;;;4.65;2.00;;;10.00;99.90;;;;;;4975631;28;20050;-78
2023/12/31 08:07:23;;;;;;;3.67;1.85;;;10.00;99.90;;;;;;4991988;28;20045;-79
2023/12/31 08:09:48;;;;;;;4.20;1.55;;;10.00;99.90;;;;;;4993587;28;20057;-78
2023/12/31 08:12:14;;;;;;;4.07;1.90;;;10.00;99.90;;;;;;4993657;28;20132;-78
2023/12/31 08:14:40;;;;;;;6.40;2.03;;;10.00;99.90;;;;;;4992773;28;20502;-78
2023/12/31 08:17:06;;;;;;;4.13;1.73;;;10.00;99.90;;;;;;4993058;28;20456;-79
2023/12/31 08:19:32;;;;;;;4.80;1.98;;;10.00;99.90;;;;;;4993410;28;20074;-83
2023/12/31 08:21:57;;;;;;;2.13;1.70;;;10.00;99.90;;;;;;4993705;28;20089;-79
2023/12/31 08:24:23;;;;;;;2.65;2.03;;;10.00;99.90;;;;;;4976160;28;20030;-75
2023/12/31 08:26:50;;;;;;;3.35;1.90;;;10.00;99.90;;;;;;4992859;28;20031;-77
2023/12/31 08:29:16;;;;;;;3.70;1.88;;;10.00;99.90;;;;;;4989130;28;20118;-79
2023/12/31 08:31:47;;;;;;;3.45;1.90;;;10.00;99.90;;;;;;4956872;28;20165;-79
2023/12/31 08:34:13;;;;;;;3.15;2.17;;;10.00;99.90;;;;;;4973929;28;20086;-79
2023/12/31 08:36:38;;;;;;;4.63;2.08;;;10.00;99.90;;;;;;4973933;28;20027;-80
2023/12/31 08:39:04;;;;;;;3.35;2.10;;;10.00;99.90;;;;;;4973914;28;20062;-79
2023/12/31 08:41:30;;;;;;;3.13;2.30;;;10.10;99.90;;;;;;4975955;28;20085;-81
2023/12/31 08:43:55;;;;;;;2.88;2.28;;;10.00;99.90;;;;;;4974269;28;20042;-81
2023/12/31 08:46:21;;;;;;;4.03;2.03;;;10.10;99.90;;;;;;4956577;28;20481;-83
2023/12/31 08:48:47;;;;;;;3.72;2.22;;;10.10;99.90;;;;;;4979668;28;20027;-82
2023/12/31 08:51:13;;;;;;;5.72;2.58;;;10.10;99.90;;;;;;4982330;28;20117;-79
2023/12/31 08:53:38;;;;;;;2.75;1.90;;;10.10;99.90;;;;;;4976533;28;20066;-81
2023/12/31 08:56:04;;;;;;;5.35;2.20;;;10.10;99.90;;;;;;4975258;28;20031;-79
2023/12/31 08:58:30;;;;;;;4.03;2.33;;;10.20;99.90;;;;;;4943921;28;20459;-79
2023/12/31 09:00:57;;;;;;;5.72;2.80;;;10.20;99.90;;;;;;4976081;28;20035;-82
2023/12/31 09:03:22;;;;;;;4.97;2.88;;;10.20;99.90;;;;;;4975815;28;20039;-75
2023/12/31 09:05:48;;;;;;;5.13;2.53;;;10.20;99.90;;;;;;4977415;28;20127;-76
2023/12/31 09:08:14;;;;;;;5.40;3.03;;;10.20;99.90;;;;;;4963434;28;20039;-79
2023/12/31 09:10:40;;;;;;;5.03;2.70;;;10.30;99.90;;;;;;4978590;28;20035;-80
2023/12/31 09:13:05;;;;;;;4.55;2.80;;;10.30;99.90;;;;;;4979289;28;20038;-81
2023/12/31 09:15:31;;;;;;;9.00;3.50;;;10.30;99.90;;;;;;4979558;28;20140;-74
2023/12/31 09:17:56;;;;;;;6.53;3.35;;;10.30;99.90;;;;;;4978941;28;20057;-74
2023/12/31 09:20:22;;;;;;;5.80;3.38;;;10.40;99.90;;;;;;4996060;28;20081;-74
2023/12/31 09:22:52;;;;;;;5.80;3.25;;;10.40;99.90;;;;;;4996137;28;20036;-76
2023/12/31 09:25:18;;;;;;;4.07;2.67;;;10.40;99.90;;;;;;4995810;28;20364;-74
2023/12/31 09:27:44;;;;;;;3.80;2.40;;;10.40;99.90;;;;;;4995224;28;20049;-73
2023/12/31 09:30:10;;;;;;;5.18;2.70;;;10.40;99.90;;;;;;4994772;28;20030;-76
2023/12/31 09:32:36;;;;;;;7.25;2.90;;;10.40;99.90;;;;;;4994736;28;20105;-80
2023/12/31 09:35:01;;;;;;;2.90;2.20;;;10.40;99.90;;;;;;4978350;28;20453;-80
2023/12/31 09:37:29;;;;;;;2.63;2.08;;;10.50;99.90;;;;;;4979682;28;20547;-80
2023/12/31 09:39:55;;;;;;;3.92;2.42;;;10.50;99.90;;;;;;4995789;28;20121;-81
2023/12/31 09:42:39;;;;;;;3.45;2.08;;;10.50;99.90;;;;;;4995734;28;20030;-80
2023/12/31 09:45:08;;;;;;;3.05;2.08;;;10.50;99.90;;;;;;4994739;28;20117;-77
2023/12/31 09:47:34;;;;;;;3.13;2.22;;;10.50;99.90;;;;;;4995118;28;20058;-80
2023/12/31 09:50:01;;;;;;;3.38;2.03;;;10.50;99.90;;;;;;4994719;28;20045;-81
2023/12/31 09:52:30;;;;;;;2.10;1.67;;;10.50;99.90;;;;;;4977421;28;20357;-80
2023/12/31 09:54:57;;;;;;;1.90;1.30;;;10.50;99.90;;;;;;4995476;28;20441;-80
2023/12/31 09:57:25;;;;;;;2.28;1.20;;;10.50;99.90;;;;;;4994313;28;20034;-81
2023/12/31 09:59:54;;;;;;;2.22;1.20;;;10.50;99.90;;;;;;4994518;28;20114;-82
2023/12/31 10:02:22;;;;;;;1.50;0.82;;;10.50;99.90;;;;;;4978148;28;20058;-81
2023/12/31 10:04:49;;;;;;;1.73;1.10;;;10.50;99.90;;;;;;4994402;28;20034;-84
2023/12/31 10:07:15;;;;;;;1.55;0.75;;;10.60;99.90;;;;;;4994758;28;20038;-79
2023/12/31 10:09:42;;;;;;;0.85;0.50;;;10.60;99.90;;;;;;4994575;28;20117;-79
2023/12/31 10:12:08;;;;;;;2.05;0.90;;;10.60;99.90;;;;;;4994470;28;20053;-77
2023/12/31 10:14:33;;;;;;;1.60;0.88;;;10.60;99.90;;;;;;4994037;28;20042;-79
2023/12/31 10:16:59;;;;;;;1.55;0.50;;;10.60;99.90;;;;;;4975647;28;20038;-74
2023/12/31 10:19:26;;;;;;;1.45;0.50;;;10.70;99.90;;;;;;4993354;28;20054;-75
2023/12/31 10:21:51;;;;;;;2.30;0.40;;;10.70;99.90;;;;;;4976993;28;20250;-75
2023/12/31 10:24:29;;;;;;;1.92;0.57;;;10.70;99.90;;;;;;4993884;28;20034;-74
2023/12/31 10:26:56;;;;;;;1.20;0.52;;;10.70;99.90;;;;;;4976466;28;20040;-86
2023/12/31 10:29:22;;;;;;;2.97;0.60;;;10.70;99.90;;;;;;4993884;28;20060;-77
2023/12/31 10:31:48;;;;;;;1.88;0.70;;;10.70;99.90;;;;;;4975511;28;20061;-83
2023/12/31 10:34:15;;;;;;;1.98;0.70;;;10.60;99.90;;;;;;4994140;28;20049;-81
2023/12/31 10:36:40;;;;;;;1.48;0.60;;;10.60;99.90;;;;;;4994056;28;20412;-82
2023/12/31 10:39:08;;;;;;;2.38;0.60;;;10.60;99.90;;;;;;4995043;28;20080;-83
2023/12/31 10:41:35;;;;;;;2.10;0.70;;;10.60;99.90;;;;;;4994436;28;20081;-80
2023/12/31 10:44:04;;;;;;;1.45;0.47;;;10.60;99.90;;;;;;4993359;28;20030;-76
2023/12/31 10:46:32;;;;;;;1.73;0.50;;;10.60;99.90;;;;;;4974497;28;20038;-73
2023/12/31 10:49:11;;;;;;;2.05;0.40;;;10.60;99.90;;;;;;4993575;28;20054;-74
2023/12/31 10:51:41;;;;;;;1.52;0.70;;;10.60;99.90;;;;;;4993608;28;20105;-73
2023/12/31 10:54:08;;;;;;;1.30;0.40;;;10.60;99.90;;;;;;4975244;28;20030;-74
2023/12/31 10:56:35;;;;;;;2.30;0.40;;;10.60;99.90;;;;;;4993807;28;20097;-74
2023/12/31 10:59:02;;;;;;;3.05;0.40;;;10.60;99.90;;;;;;4993208;28;20500;-73
2023/12/31 11:01:28;;;;;;;1.40;0.40;;;10.60;99.90;;;;;;4993596;28;20030;-75
2023/12/31 11:03:56;;;;;;;1.65;0.40;;;10.60;99.90;;;;;;4992060;28;20026;-73
2023/12/31 11:06:23;;;;;;;2.33;0.40;;;10.60;99.90;;;;;;4975624;28;20476;-74
2023/12/31 11:08:49;;;;;;;1.33;0.40;;;10.70;99.90;;;;;;4993530;28;20014;-74
2023/12/31 11:11:18;;;;;;;3.40;0.60;;;10.70;99.90;;;;;;4992817;28;20034;-74
2023/12/31 11:13:49;;;;;;;1.77;0.88;;;10.70;99.90;;;;;;4976007;28;20066;-74
2023/12/31 11:16:35;;;;;;;4.25;1.10;;;10.60;99.90;;;;;;4992918;28;20034;-74
2023/12/31 11:19:28;;;;;;;2.25;0.47;;;10.60;99.90;;;;;;4971339;28;20489;-74
2023/12/31 11:22:26;;;;;;;1.83;0.30;;;10.50;99.90;;;;;;4974136;28;20205;-73
2023/12/31 11:24:55;;;;;;;1.30;0.30;;;10.30;99.90;;;;;;4973476;28;20053;-73
2023/12/31 11:27:21;;;;;;;1.17;0.30;;;10.40;99.90;;;;;;4973061;28;20034;-73
2023/12/31 11:29:49;;;;;;;3.38;0.52;;;10.40;99.90;;;;;;4973251;28;20041;-73
2023/12/31 11:32:19;;;;;;;1.85;0.30;;;10.30;99.90;;;;;;4973558;28;20039;-72
2023/12/31 11:34:51;;;;;;;4.05;0.30;;;10.30;99.90;;;;;;4970161;28;20113;-73
2023/12/31 11:37:17;;;;;;;1.67;0.55;;;10.30;99.90;;;;;;4973484;28;20039;-73
2023/12/31 11:39:47;;;;;;;3.35;0.40;;;10.30;99.90;;;;;;4973421;28;20066;-73
2023/12/31 11:42:21;;;;;;;2.30;0.40;;;10.30;99.90;;;;;;4970502;28;20035;-73
2023/12/31 11:44:47;;;;;;;2.33;0.70;;;10.30;99.90;;;;;;4972304;28;20062;-73
2023/12/31 11:47:14;;;;;;;2.97;1.10;;;10.40;99.90;;;;;;4970856;28;20058;-74
2023/12/31 11:49:58;;;;;;;2.28;0.45;;;10.40;99.90;;;;;;4974097;28;20035;-73
2023/12/31 11:52:40;;;;;;;3.13;0.68;;;10.40;99.90;;;;;;4973764;28;20034;-73
2023/12/31 11:55:10;;;;;;;4.88;1.42;;;10.30;99.90;;;;;;4972646;28;20046;-73
2023/12/31 11:57:36;;;;;;;2.85;0.75;;;10.30;99.90;;;;;;4974464;28;20031;-75
2023/12/31 12:00:06;;;;;;;3.53;0.90;;;10.30;99.90;;;;;;4973913;28;20054;-73
2023/12/31 12:02:32;;;;;;;2.05;0.50;;;10.30;99.90;;;;;;4973278;28;20104;-73
2023/12/31 12:05:00;;;;;;;2.70;0.40;;;10.30;99.90;;;;;;4972184;28;20050;-72
2023/12/31 12:07:26;;;;;;;2.00;0.22;;;10.30;99.90;;;;;;4974214;28;20471;-73
2023/12/31 12:09:52;;;;;;;1.55;0.52;;;10.30;99.90;;;;;;4988488;28;20090;-72
2023/12/31 12:12:18;;;;;;;2.10;0.20;;;10.30;99.90;;;;;;4973957;28;20027;-72
2023/12/31 12:14:44;;;;;;;0.93;0.20;;;10.30;99.90;;;;;;4971675;28;20050;-73
2023/12/31 12:17:10;;;;;;;1.77;0.10;;;10.30;99.90;;;;;;4973321;28;20386;-73
2023/12/31 12:19:35;;;;;;;1.77;0.20;;;10.30;99.90;;;;;;4971582;28;20070;-74
2023/12/31 12:22:02;;;;;;;2.17;0.30;;;10.30;99.90;;;;;;4973697;28;20552;-73
2023/12/31 12:24:28;;;;;;;1.83;0.30;;;10.30;99.90;;;;;;4972656;28;20035;-72
2023/12/31 12:26:54;;;;;;;2.08;0.30;;;10.30;99.90;;;;;;4972742;28;20377;-73
2023/12/31 12:29:20;;;;;;;1.63;0.35;;;10.30;99.90;;;;;;4973647;28;20093;-73
2023/12/31 12:31:47;;;;;;;3.08;0.38;;;10.40;99.90;;;;;;4956793;28;20066;-73
2023/12/31 12:34:15;;;;;;;2.10;0.30;;;10.40;99.90;;;;;;4972481;28;20042;-73
2023/12/31 12:36:44;;;;;;;3.13;0.30;;;10.40;99.90;;;;;;4973452;28;20118;-73
2023/12/31 12:39:17;;;;;;;1.55;0.30;;;10.50;99.90;;;;;;4975339;28;20027;-75
2023/12/31 12:41:48;;;;;;;1.65;0.30;;;10.50;99.90;;;;;;4977691;28;20089;-74
2023/12/31 12:44:14;;;;;;;2.58;0.40;;;10.50;99.90;;;;;;4977022;28;20043;-73
2023/12/31 12:46:41;;;;;;;7.18;1.05;;;10.50;99.90;;;;;;4976368;28;20027;-73